Terminal Aerodrome Forecast
Issued by NWS Jackson, MS

Home | Current Version | Previous Version | Text Only | Print | Product List | Glossary On
Versions: 1 2 3 4 5 6 7 8 9 10 11 12 13
000
FTUS44 KJAN 200800 AAA
TAFGLH
TAF AMD
KGLH 200841Z 2009/2106 00000KT 1SM BR VV001
     FM201300 00000KT 3SM BR SKC
     FM201600 00000KT P6SM SKC=

USA.gov is the U.S. government's official web portal to all federal, state and local government web resources and services.